CDT,Max TemperatureF,Mean TemperatureF,Min TemperatureF,Max Dew PointF,MeanDew PointF,Min DewpointF,Max Humidity, Mean Humidity, Min Humidity, Max Sea Level PressureIn, Mean Sea Level PressureIn, Min Sea Level PressureIn, Max VisibilityMiles, Mean VisibilityMiles, Min VisibilityMiles, Max Wind SpeedMPH, Mean Wind SpeedMPH, Max Gust SpeedMPH,PrecipitationIn, CloudCover, Events, WindDirDegrees
2013-3-1,51,40,29,29,26,22,88,60,38,30.27,30.21,30.16,10,10,10,18,9,26,0.00,2,,337
2013-3-2,49,37,25,23,18,14,69,48,27,30.38,30.30,30.23,10,10,10,18,8,24,0.00,1,,339
2013-3-3,66,46,27,32,26,18,78,45,25,30.22,30.05,29.81,10,10,10,15,6,23,0.00,0,,155
2013-3-4,81,66,51,48,43,33,68,50,21,29.80,29.68,29.58,10,10,10,20,12,30,0.00,0,,204
2013-3-5,54,46,38,39,24,16,70,45,24,30.34,30.20,29.81,10,10,10,26,17,34,0.00,1,Rain,339
2013-3-6,58,44,30,22,18,11,69,39,16,30.43,30.33,30.21,10,10,7,10,6,16,0.00,0,,317
2013-3-7,66,50,35,31,27,18,75,45,20,30.29,30.21,30.13,10,10,10,18,7,29,0.00,0,,126
2013-3-8,61,52,44,38,34,28,63,48,36,30.24,30.14,30.02,10,10,10,15,9,28,0.00,5,,128
2013-3-9,65,58,52,58,50,36,96,73,44,30.02,29.86,29.68,10,9,3,15,9,28,0.00,7,Rain-Thunderstorm,139
2013-3-10,55,46,36,55,39,26,97,75,55,30.05,29.87,29.71,10,9,2,23,10,33,0.00,7,Rain-Thunderstorm,299
2013-3-11,53,42,30,30,24,18,85,56,25,30.07,30.03,29.99,10,10,10,17,9,25,0.00,0,,288
2013-3-12,65,48,32,37,28,17,87,51,22,30.31,30.18,30.05,10,10,10,9,3,,0.00,0,,2
2013-3-13,64,50,37,36,27,20,65,42,21,30.47,30.38,30.31,10,10,10,10,5,17,0.00,0,,30
2013-3-14,75,57,39,44,35,27,63,45,29,30.36,30.28,30.17,10,10,10,17,6,,0.00,0,,145
2013-3-15,80,66,53,51,46,41,81,50,29,30.17,30.03,29.87,10,10,10,15,10,21,0.00,0,,203
2013-3-16,80,68,56,55,51,43,77,55,38,29.87,29.81,29.71,10,10,10,16,9,17,0.00,0,,184
2013-3-17,68,59,49,59,51,45,86,71,58,29.76,29.73,29.68,10,10,10,17,8,25,0.00,5,,291
2013-3-18,64,54,45,47,42,33,95,68,39,30.03,29.84,29.65,10,9,4,20,7,32,0.00,2,Rain-Thunderstorm,17
2013-3-19,63,50,38,39,34,26,93,57,28,30.15,30.08,30.00,10,10,10,17,5,29,0.00,0,,81
2013-3-20,62,50,39,37,29,21,76,46,21,30.32,30.20,30.06,10,10,10,15,6,24,0.00,0,,19
2013-3-21,47,44,40,38,32,24,85,63,40,30.06,29.85,29.69,10,10,5,21,10,28,0.00,5,Rain-Thunderstorm,115
2013-3-22,46,42,39,44,42,36,97,94,83,29.87,29.78,29.69,10,6,2,17,10,25,0.00,8,Rain,62
2013-3-23,48,46,43,46,44,43,98,95,90,29.86,29.78,29.69,10,7,2,14,5,21,0.00,8,Rain-Thunderstorm,57
2013-3-24,49,42,35,45,28,20,95,61,36,30.17,29.98,29.78,10,10,5,28,16,39,0.00,5,Rain,324
2013-3-25,49,38,27,23,17,12,77,47,23,30.39,30.27,30.17,10,10,10,22,10,31,0.00,0,,323
2013-3-26,52,39,26,23,20,17,71,48,28,30.48,30.39,30.31,10,10,10,10,5,17,0.00,0,,285
2013-3-27,66,48,30,29,25,22,80,43,22,30.34,30.24,30.13,10,10,10,15,6,23,0.00,0,,151
2013-3-28,72,58,44,52,43,29,72,56,43,30.25,30.18,30.11,10,10,7,10,7,,0.00,6,,148
2013-3-29,71,64,57,57,54,51,85,69,56,30.18,30.13,30.06,10,10,10,15,10,22,0.00,5,Rain-Thunderstorm,178
2013-3-30,72,65,58,62,59,56,97,85,69,30.07,29.98,29.90,10,9,2,13,5,21,0.00,6,Rain-Thunderstorm,141
2013-3-31,73,64,55,60,52,41,97,71,36,29.98,29.92,29.84,10,8,1,25,7,37,0.00,2,Rain-Thunderstorm,44